Time;durP1;ratioP1;P1;durP2;ratioP2;P2;SDS_P1;SDS_P2;PMS_P1;PMS_P2;Temp;Humidity;BMP_temperature;BMP_pressure;BME280_temperature;BME280_humidity;BME280_pressure;Samples;Min_cycle;Max_cycle;Signal;HPM_P1;HPM_P2
2020/12/31 00:11:27;;;;;;;;;74.40;57.20;;;;;5.18;69.73;100942.72;477272;111;411054;-82
2020/12/31 00:14:18;;;;;;;;;84.50;63.90;;;;;4.96;69.64;100952.58;514501;103;413785;-80
2020/12/31 00:15:45;;;;;;;;;85.90;65.20;;;;;4.96;69.64;100952.58;509846;105;389809;-80
2020/12/31 00:16:53;;;;;;;;;84.70;62.90;;;;;4.93;69.62;100957.99;501661;107;389748;-82
2020/12/31 00:17:57;;;;;;;;;82.60;63.10;;;;;4.97;69.75;100954.30;501201;108;389425;-81
2020/12/31 00:19:01;;;;;;;;;74.30;57.00;;;;;4.97;69.75;100954.30;497675;109;387726;-82
2020/12/31 00:20:06;;;;;;;;;82.10;62.60;;;;;5.01;69.76;100966.38;500719;108;388060;-80
2020/12/31 00:21:10;;;;;;;;;82.30;62.10;;;;;5.02;69.29;100959.33;502320;108;389322;-81
2020/12/31 00:22:14;;;;;;;;;81.00;61.10;;;;;5.02;69.29;100959.33;499279;109;388396;-80
2020/12/31 00:23:18;;;;;;;;;86.50;60.00;;;;;5.02;69.43;100957.56;502278;108;389866;-81
2020/12/31 00:24:22;;;;;;;;;77.80;59.80;;;;;5.06;69.28;100960.91;502647;108;387725;-81
2020/12/31 00:25:26;;;;;;;;;78.40;57.00;;;;;5.05;69.45;100957.41;504228;108;388428;-81
2020/12/31 00:26:30;;;;;;;;;75.70;58.40;;;;;5.07;68.92;100955.58;503342;108;387892;-80
2020/12/31 00:27:34;;;;;;;;;82.00;61.80;;;;;5.10;68.98;100958.06;501115;108;388114;-80
2020/12/31 00:28:38;;;;;;;;;80.90;61.20;;;;;5.06;68.71;100948.59;499363;109;389572;-81
2020/12/31 00:29:42;;;;;;;;;71.20;56.90;;;;;5.04;68.60;100955.69;497848;109;387568;-80
2020/12/31 00:30:46;;;;;;;;;75.90;57.60;;;;;5.04;68.60;100955.69;498427;109;388616;-78
2020/12/31 00:31:50;;;;;;;;;74.20;56.30;;;;;5.00;68.89;100954.16;502803;108;387939;-79
2020/12/31 00:32:54;;;;;;;;;81.20;60.70;;;;;5.02;68.72;100947.02;504897;108;388238;-78
2020/12/31 00:33:57;;;;;;;;;82.40;62.20;;;;;5.04;69.02;100955.69;504925;108;387885;-81
2020/12/31 00:35:01;;;;;;;;;83.00;63.00;;;;;5.08;68.94;100956.41;504954;108;386899;-79
2020/12/31 00:36:05;;;;;;;;;79.80;60.20;;;;;5.11;68.77;100958.89;504976;108;388127;-81
2020/12/31 00:37:09;;;;;;;;;74.00;56.60;;;;;5.13;68.42;100965.83;503046;108;388617;-80
2020/12/31 00:38:13;;;;;;;;;80.50;60.30;;;;;5.13;68.42;100965.83;503159;108;389852;-79
2020/12/31 00:39:17;;;;;;;;;81.90;59.90;;;;;5.17;68.29;100963.91;504321;108;388862;-80
2020/12/31 00:40:22;;;;;;;;;86.60;63.30;;;;;5.17;68.29;100963.91;503911;108;388958;-79
2020/12/31 00:41:26;;;;;;;;;78.45;57.82;;;;;5.16;68.22;100973.59;504594;108;400896;-79
2020/12/31 00:42:30;;;;;;;;;86.00;65.40;;;;;5.19;68.10;100969.95;504781;108;389528;-80
2020/12/31 00:43:34;;;;;;;;;79.30;60.60;;;;;5.18;68.08;100963.82;499130;108;388083;-80
2020/12/31 00:44:38;;;;;;;;;85.90;64.70;;;;;5.19;68.00;100965.53;499352;109;396801;-81
2020/12/31 00:45:42;;;;;;;;;85.10;64.50;;;;;5.22;67.65;100959.25;504788;108;388476;-79
2020/12/31 00:46:47;;;;;;;;;88.50;66.10;;;;;5.22;67.65;100959.25;504420;108;388936;-81
2020/12/31 00:47:51;;;;;;;;;87.30;63.70;;;;;5.18;67.93;100953.27;504699;108;390347;-80
2020/12/31 00:48:55;;;;;;;;;88.10;66.70;;;;;5.18;68.21;100949.77;498598;108;387824;-82
2020/12/31 00:49:59;;;;;;;;;76.60;56.80;;;;;5.18;67.97;100955.91;485569;112;388831;-79
2020/12/31 00:51:03;;;;;;;;;76.60;56.20;;;;;5.18;67.97;100955.91;490881;111;389361;-80
2020/12/31 00:52:07;;;;;;;;;86.10;64.90;;;;;5.14;68.02;100950.84;493211;109;395022;-79
2020/12/31 00:53:12;;;;;;;;;85.20;63.00;;;;;5.15;68.11;100952.56;496371;109;390252;-80
2020/12/31 00:54:16;;;;;;;;;85.80;66.90;;;;;5.15;68.11;100952.56;504744;108;389630;-80
2020/12/31 00:55:20;;;;;;;;;78.90;59.30;;;;;5.04;68.58;100958.33;504381;108;388076;-78
2020/12/31 00:56:26;;;;;;;;;88.30;65.30;;;;;5.03;68.42;100961.05;504459;108;395787;-80
2020/12/31 00:57:29;;;;;;;;;81.00;61.30;;;;;5.08;68.24;100957.27;499187;108;388552;-78
2020/12/31 00:58:33;;;;;;;;;84.00;63.60;;;;;5.08;68.14;100962.53;502234;108;388594;-79
2020/12/31 00:59:37;;;;;;;;;82.50;60.70;;;;;5.06;68.16;100961.77;504694;108;398382;-79
2020/12/31 01:00:43;;;;;;;;;80.50;61.10;;;;;5.04;68.45;100958.33;504357;108;394317;-80
2020/12/31 01:01:47;;;;;;;;;79.20;60.70;;;;;5.07;68.33;100963.48;500178;108;389165;-80
2020/12/31 01:02:50;;;;;;;;;73.60;55.70;;;;;5.10;67.83;100965.98;497738;109;386921;-80
2020/12/31 01:03:54;;;;;;;;;73.90;56.40;;;;;5.10;67.83;100965.98;499664;109;387759;-80
2020/12/31 01:04:58;;;;;;;;;73.40;59.50;;;;;5.12;67.65;100958.84;499631;109;387419;-78
2020/12/31 01:06:02;;;;;;;;;72.60;54.40;;;;;5.16;67.58;100965.69;499579;109;387017;-79
2020/12/31 01:07:05;;;;;;;;;64.10;50.20;;;;;5.18;67.26;100963.82;498307;109;387147;-79
2020/12/31 01:08:09;;;;;;;;;76.80;57.80;;;;;5.19;67.66;100965.53;503053;108;396895;-80
2020/12/31 01:09:13;;;;;;;;;66.40;54.80;;;;;5.22;66.77;100951.34;504318;108;387170;-79
2020/12/31 01:10:17;;;;;;;;;79.00;60.90;;;;;5.20;67.56;100967.23;504273;108;388768;-79
2020/12/31 01:11:21;;;;;;;;;78.30;58.30;;;;;5.18;67.16;100963.82;499245;108;388181;-83
2020/12/31 01:12:28;;;;;;;;;72.40;55.20;;;;;5.11;67.24;100961.53;489918;111;386603;-82
2020/12/31 01:13:32;;;;;;;;;57.70;46.00;;;;;5.10;67.76;100960.70;488549;111;385050;-82
2020/12/31 01:14:36;;;;;;;;;70.60;54.40;;;;;5.10;67.76;100960.70;500518;107;387333;-84
2020/12/31 01:15:39;;;;;;;;;72.50;56.10;;;;;5.13;67.71;100952.65;487927;111;388271;-83
2020/12/31 01:16:51;;;;;;;;;73.10;57.40;;;;;5.13;67.71;100952.65;495402;109;388354;-85
2020/12/31 01:17:55;;;;;;;;;74.00;58.10;;;;;5.11;67.32;100951.84;505187;107;393733;-82
2020/12/31 01:18:59;;;;;;;;;75.10;56.40;;;;;5.08;68.01;100959.05;500233;108;389344;-81
2020/12/31 01:20:03;;;;;;;;;70.40;56.60;;;;;5.06;67.49;100956.49;503932;108;386726;-81
2020/12/31 01:21:10;;;;;;;;;73.20;57.60;;;;;5.09;67.74;100952.85;500197;108;389397;-78
2020/12/31 01:22:17;;;;;;;;;73.90;55.70;;;;;5.09;67.50;100951.08;497506;108;388597;-78
2020/12/31 01:23:21;;;;;;;;;74.80;56.10;;;;;5.09;68.06;100958.13;504499;108;387878;-79
2020/12/31 01:24:25;;;;;;;;;71.00;54.10;;;;;5.09;68.06;100958.13;500911;108;392111;-78
2020/12/31 01:25:28;;;;;;;;;62.10;46.20;;;;;5.06;68.12;100955.64;499493;109;387632;-79
2020/12/31 01:26:34;;;;;;;;;70.70;50.80;;;;;5.03;67.87;100956.64;499260;109;388677;-81
2020/12/31 01:27:38;;;;;;;;;64.80;47.80;;;;;5.03;67.87;100956.64;498457;109;386231;-80
2020/12/31 01:28:42;;;;;;;;;60.50;47.40;;;;;4.95;68.05;100958.77;498163;109;392917;-79
2020/12/31 01:29:46;;;;;;;;;62.80;49.40;;;;;4.90;68.50;100949.37;503595;108;386254;-78
2020/12/31 01:30:50;;;;;;;;;63.40;49.00;;;;;4.85;68.56;100949.56;496144;109;388157;-81
2020/12/31 01:31:54;;;;;;;;;51.40;39.90;;;;;4.85;68.88;100960.11;500005;109;386177;-82
2020/12/31 01:32:58;;;;;;;;;60.50;46.70;;;;;4.85;68.88;100960.11;504224;108;393051;-81
2020/12/31 01:34:02;;;;;;;;;60.40;47.00;;;;;4.86;69.04;100953.06;504413;108;385557;-83
2020/12/31 01:35:06;;;;;;;;;45.20;37.70;;;;;4.83;68.76;100946.16;504721;108;384224;-82
2020/12/31 01:36:10;;;;;;;;;59.60;45.60;;;;;4.86;68.82;100953.06;501025;108;384080;-81
2020/12/31 01:37:16;;;;;;;;;55.80;42.80;;;;;4.86;68.82;100953.06;504716;108;386615;-82
2020/12/31 01:38:20;;;;;;;;;51.40;41.60;;;;;4.86;68.73;100951.29;504394;108;386536;-83
2020/12/31 01:39:24;;;;;;;;;44.70;33.30;;;;;4.82;68.95;100960.25;504630;108;386154;-84
2020/12/31 01:40:31;;;;;;;;;53.30;41.20;;;;;4.78;68.97;100937.63;497237;109;386235;-84
2020/12/31 01:41:37;;;;;;;;;48.20;41.60;;;;;4.78;68.97;100937.63;503731;108;385011;-84
2020/12/31 01:42:41;;;;;;;;;49.60;38.50;;;;;4.77;69.23;100935.91;499769;108;386573;-85
2020/12/31 01:43:45;;;;;;;;;43.10;38.40;;;;;4.80;68.96;100939.26;490209;111;386167;-82
2020/12/31 01:44:49;;;;;;;;;43.90;38.60;;;;;4.80;69.25;100948.94;487864;111;385809;-85
2020/12/31 01:45:54;;;;;;;;;47.00;37.90;;;;;4.83;69.49;100946.16;499531;109;386337;-84
2020/12/31 01:46:59;;;;;;;;;40.20;35.60;;;;;4.85;69.28;100935.56;489599;111;395150;-85
2020/12/31 01:48:03;;;;;;;;;56.20;41.20;;;;;4.85;69.28;100935.56;479543;113;388161;-84
2020/12/31 01:49:08;;;;;;;;;52.00;38.20;;;;;4.87;69.11;100937.20;499537;109;387444;-82
2020/12/31 01:50:13;;;;;;;;;40.60;33.60;;;;;4.86;69.00;100940.75;498949;109;384076;-82
2020/12/31 01:51:16;;;;;;;;;44.20;38.20;;;;;4.77;69.90;100962.26;499499;109;385222;-82
2020/12/31 01:52:20;;;;;;;;;38.60;32.90;;;;;4.78;69.71;100948.17;499089;109;390683;-80
2020/12/31 01:53:24;;;;;;;;;45.00;35.70;;;;;4.77;69.29;100946.45;499520;109;386337;-82
2020/12/31 01:54:28;;;;;;;;;40.20;34.50;;;;;4.77;69.29;100946.45;499525;109;385733;-82
2020/12/31 01:55:32;;;;;;;;;44.60;36.80;;;;;4.70;69.53;100939.74;499108;109;385315;-81
2020/12/31 01:56:38;;;;;;;;;42.30;36.40;;;;;4.71;69.82;100937.05;499303;109;387917;-82
2020/12/31 01:57:41;;;;;;;;;47.10;39.30;;;;;4.70;69.62;100945.02;499547;109;384174;-81
2020/12/31 01:58:45;;;;;;;;;38.60;34.10;;;;;4.70;69.62;100945.02;499542;109;385224;-81
2020/12/31 01:59:50;;;;;;;;;44.40;35.40;;;;;4.69;69.74;100933.61;499170;109;385776;-82
2020/12/31 02:00:54;;;;;;;;;41.00;36.40;;;;;4.76;69.85;100936.83;498589;109;386441;-81
2020/12/31 02:01:58;;;;;;;;;46.10;35.00;;;;;4.76;69.64;100934.19;499565;109;386351;-81
2020/12/31 02:03:02;;;;;;;;;41.80;35.80;;;;;4.76;69.64;100934.19;499543;109;386724;-81
2020/12/31 02:04:06;;;;;;;;;40.80;32.60;;;;;4.75;69.92;100943.87;489774;111;386014;-81
2020/12/31 02:05:10;;;;;;;;;43.30;35.90;;;;;4.73;70.66;100929.92;490543;111;392350;-82
2020/12/31 02:06:15;;;;;;;;;47.60;38.80;;;;;4.76;70.57;100934.19;498733;109;385486;-80
2020/12/31 02:07:20;;;;;;;;;43.20;38.00;;;;;4.75;70.11;100929.87;499548;109;384850;-81
2020/12/31 02:08:23;;;;;;;;;43.50;34.40;;;;;4.82;70.43;100933.08;499492;109;385855;-79
2020/12/31 02:09:27;;;;;;;;;41.10;36.90;;;;;4.82;70.12;100923.36;499522;109;385017;-80
2020/12/31 02:10:32;;;;;;;;;43.30;36.80;;;;;4.82;70.12;100923.36;499236;109;384526;-81
2020/12/31 02:11:36;;;;;;;;;39.60;33.60;;;;;4.82;70.00;100931.27;499565;109;386689;-81
2020/12/31 02:12:40;;;;;;;;;42.10;34.70;;;;;4.74;70.07;100920.24;499047;109;386264;-82
2020/12/31 02:13:44;;;;;;;;;40.60;34.00;;;;;4.68;70.60;100926.66;499052;109;385237;-80
2020/12/31 02:14:49;;;;;;;;;43.80;37.70;;;;;4.68;70.60;100926.66;499227;109;385906;-81
2020/12/31 02:15:53;;;;;;;;;43.60;36.50;;;;;4.66;70.86;100927.63;499318;109;384950;-79
2020/12/31 02:16:57;;;;;;;;;42.20;35.10;;;;;4.66;70.86;100927.63;499188;109;386552;-79
2020/12/31 02:18:01;;;;;;;;;52.10;38.70;;;;;4.59;71.11;100923.59;499517;109;387378;-76
2020/12/31 02:19:06;;;;;;;;;43.70;35.30;;;;;4.64;71.16;100925.08;499446;109;392126;-76
2020/12/31 02:20:11;;;;;;;;;40.20;34.70;;;;;4.63;71.65;100926.00;498997;109;384514;-78
2020/12/31 02:21:16;;;;;;;;;46.60;37.30;;;;;4.63;71.65;100926.00;499596;109;385008;-77
2020/12/31 02:22:19;;;;;;;;;45.00;34.00;;;;;4.66;71.57;100915.31;499277;109;385023;-78
2020/12/31 02:23:23;;;;;;;;;45.50;38.90;;;;;4.72;71.10;100916.84;499577;109;385461;-76
2020/12/31 02:24:27;;;;;;;;;45.30;35.50;;;;;4.72;71.10;100916.84;499490;109;387045;-78
2020/12/31 02:25:31;;;;;;;;;38.00;34.10;;;;;4.71;71.20;100926.52;499581;109;384096;-77
2020/12/31 02:26:36;;;;;;;;;45.40;38.80;;;;;4.70;71.62;100926.56;499300;109;384421;-77
2020/12/31 02:27:40;;;;;;;;;45.60;36.10;;;;;4.67;71.29;100931.98;499222;109;387016;-74
2020/12/31 02:28:44;;;;;;;;;38.90;34.90;;;;;4.70;71.53;100940.60;499487;109;392428;-74
2020/12/31 02:29:48;;;;;;;;;36.30;27.90;;;;;4.74;71.81;100941.32;499032;109;384778;-75
2020/12/31 02:30:52;;;;;;;;;40.70;33.00;;;;;4.74;71.81;100941.32;499574;109;385193;-73
2020/12/31 02:31:55;;;;;;;;;43.20;37.30;;;;;4.76;72.06;100936.83;499484;109;391811;-73
2020/12/31 02:32:59;;;;;;;;;35.20;26.60;;;;;4.76;72.06;100936.83;499048;109;384535;-73
2020/12/31 02:34:04;;;;;;;;;30.90;30.90;;;;;4.79;71.33;100932.27;499094;109;384155;-73
2020/12/31 02:35:08;;;;;;;;;37.40;32.40;;;;;4.79;71.33;100932.27;499349;109;385365;-72
2020/12/31 02:36:14;;;;;;;;;41.50;35.80;;;;;4.78;71.66;100937.63;499052;109;385473;-73
2020/12/31 02:37:18;;;;;;;;;38.80;31.50;;;;;4.79;71.94;100940.17;499274;109;384715;-73
2020/12/31 02:38:22;;;;;;;;;35.70;26.40;;;;;4.77;71.76;100938.55;499588;109;387203;-72
2020/12/31 02:39:25;;;;;;;;;34.40;30.60;;;;;4.75;71.78;100950.95;499659;109;384862;-73
2020/12/31 02:40:31;;;;;;;;;37.40;32.00;;;;;4.73;71.66;100942.23;498618;109;391986;-73
2020/12/31 02:41:35;;;;;;;;;36.70;34.00;;;;;4.73;71.66;100942.23;499526;109;383819;-73
2020/12/31 02:42:39;;;;;;;;;39.40;33.70;;;;;4.80;72.00;100943.67;499500;109;385306;-73
2020/12/31 02:43:43;;;;;;;;;41.00;31.90;;;;;4.83;71.71;100943.52;499029;109;386241;-73
2020/12/31 02:44:47;;;;;;;;;43.40;37.40;;;;;4.80;71.82;100941.03;499622;108;392964;-73
2020/12/31 02:45:51;;;;;;;;;51.80;38.90;;;;;4.78;71.72;100940.27;504381;108;385993;-73
2020/12/31 02:46:55;;;;;;;;;45.50;36.90;;;;;4.73;72.13;100947.50;501659;108;385434;-73
2020/12/31 02:47:59;;;;;;;;;50.10;38.20;;;;;4.73;72.13;100947.50;504701;108;385640;-73
2020/12/31 02:49:02;;;;;;;;;44.90;37.70;;;;;4.70;72.93;100942.37;503240;108;386127;-73
2020/12/31 02:50:06;;;;;;;;;37.10;32.80;;;;;4.70;72.93;100942.37;496958;109;386146;-74
2020/12/31 02:51:10;;;;;;;;;46.30;36.60;;;;;4.72;72.95;100944.02;498364;109;391458;-73
2020/12/31 02:52:14;;;;;;;;;46.80;38.10;;;;;4.71;72.70;100944.96;496949;109;386620;-73
2020/12/31 02:53:18;;;;;;;;;45.30;38.00;;;;;4.73;73.08;100944.88;497933;108;385669;-74
2020/12/31 02:54:21;;;;;;;;;43.70;37.40;;;;;4.73;73.08;100944.88;500707;108;385380;-73
2020/12/31 02:55:25;;;;;;;;;43.80;35.00;;;;;4.71;73.28;100946.73;500582;108;384695;-73
2020/12/31 02:56:29;;;;;;;;;46.30;39.60;;;;;4.66;73.62;100948.70;503498;108;384705;-73
2020/12/31 02:57:33;;;;;;;;;44.20;38.10;;;;;4.60;74.21;100941.08;504675;108;386069;-74
2020/12/31 02:58:37;;;;;;;;;46.10;37.30;;;;;4.60;74.16;100949.84;502166;108;392825;-73
2020/12/31 02:59:41;;;;;;;;;48.00;36.70;;;;;4.55;74.39;100951.84;497156;109;386813;-73
2020/12/31 03:00:47;;;;;;;;;47.70;35.60;;;;;4.52;74.65;100948.49;498019;109;386249;-75
2020/12/31 03:01:53;;;;;;;;;44.30;35.00;;;;;4.53;74.64;100948.41;503787;107;386527;-74
2020/12/31 03:02:57;;;;;;;;;41.40;36.90;;;;;4.53;74.64;100948.41;499850;108;385795;-74
2020/12/31 03:04:01;;;;;;;;;45.40;36.60;;;;;4.43;75.30;100946.27;504671;108;386261;-74
2020/12/31 03:05:05;;;;;;;;;38.10;33.90;;;;;4.43;75.86;100947.14;504689;108;383922;-75
2020/12/31 03:06:09;;;;;;;;;51.80;39.40;;;;;4.44;75.50;100953.23;498383;108;388059;-74
2020/12/31 03:07:13;;;;;;;;;31.90;26.30;;;;;4.49;76.19;100956.53;499221;109;382436;-74
2020/12/31 03:08:17;;;;;;;;;42.00;35.70;;;;;4.49;76.19;100956.53;499500;108;385300;-81
2020/12/31 03:09:21;;;;;;;;;34.60;30.90;;;;;4.54;75.41;100941.36;504026;108;385578;-78
2020/12/31 03:10:26;;;;;;;;;42.70;34.80;;;;;4.54;75.41;100941.36;501614;108;385925;-79
2020/12/31 03:11:30;;;;;;;;;38.30;31.80;;;;;4.54;75.88;100942.22;498377;109;386245;-79
2020/12/31 03:12:34;;;;;;;;;45.30;35.20;;;;;4.54;75.88;100942.22;498471;109;391507;-80
2020/12/31 03:13:38;;;;;;;;;38.90;32.60;;;;;4.55;75.97;100949.21;495436;109;385403;-78
2020/12/31 03:14:42;;;;;;;;;43.00;36.60;;;;;4.50;76.48;100952.98;496605;109;390420;-75
2020/12/31 03:15:45;;;;;;;;;42.20;35.40;;;;;4.50;76.48;100952.98;503316;108;386254;-75
2020/12/31 03:16:50;;;;;;;;;39.80;32.30;;;;;4.51;76.24;100949.41;503876;108;384496;-75
2020/12/31 03:17:54;;;;;;;;;44.40;34.20;;;;;4.50;76.07;100938.01;504706;108;391802;-73
2020/12/31 03:18:58;;;;;;;;;45.30;35.80;;;;;4.51;75.89;100945.00;501658;108;386599;-75
2020/12/31 03:20:02;;;;;;;;;43.20;35.50;;;;;4.48;75.76;100947.77;506767;107;385663;-75
2020/12/31 03:21:06;;;;;;;;;38.60;32.80;;;;;4.48;75.76;100947.77;498872;108;384523;-76
2020/12/31 03:22:10;;;;;;;;;45.40;39.00;;;;;4.53;76.04;100956.31;499517;109;386514;-77
2020/12/31 03:23:14;;;;;;;;;41.00;31.30;;;;;4.52;75.69;100956.39;499760;108;386023;-76
2020/12/31 03:24:17;;;;;;;;;45.20;38.60;;;;;4.47;75.81;100955.73;504536;108;392973;-75
2020/12/31 03:25:21;;;;;;;;;42.80;36.10;;;;;4.33;76.69;100939.70;498624;109;386147;-73
2020/12/31 03:26:27;;;;;;;;;35.40;30.70;;;;;4.33;76.69;100939.70;499101;109;382702;-73
2020/12/31 03:27:31;;;;;;;;;42.90;36.70;;;;;4.35;76.61;100932.58;502116;108;386135;-74
2020/12/31 03:28:35;;;;;;;;;38.30;31.50;;;;;4.28;76.87;100926.73;499847;108;383575;-74
2020/12/31 03:29:39;;;;;;;;;45.10;33.80;;;;;4.27;77.58;100932.94;503530;108;386281;-74
2020/12/31 03:30:45;;;;;;;;;41.50;32.60;;;;;4.18;77.68;100926.28;503711;108;386538;-74
2020/12/31 03:31:49;;;;;;;;;36.20;29.70;;;;;4.21;77.26;100922.68;504476;108;384898;-74
2020/12/31 03:32:52;;;;;;;;;44.80;37.90;;;;;4.23;77.05;100919.05;504705;108;384799;-73
2020/12/31 03:33:56;;;;;;;;;41.80;36.20;;;;;4.19;77.13;100917.47;504634;108;386842;-73
2020/12/31 03:35:00;;;;;;;;;42.00;35.30;;;;;4.19;77.13;100917.47;504247;108;392056;-72
2020/12/31 03:36:04;;;;;;;;;38.40;32.40;;;;;4.25;77.58;100918.97;504747;108;386689;-73
2020/12/31 03:37:08;;;;;;;;;37.80;35.00;;;;;4.25;77.58;100918.97;504421;108;383821;-76
2020/12/31 03:38:12;;;;;;;;;38.50;31.50;;;;;4.14;76.74;100932.63;498591;108;385849;-77
2020/12/31 03:39:16;;;;;;;;;47.20;38.70;;;;;4.14;76.74;100932.63;498101;109;393152;-76
2020/12/31 03:40:20;;;;;;;;;45.70;39.50;;;;;4.19;77.27;100928.00;498279;109;386079;-76
2020/12/31 03:41:24;;;;;;;;;41.60;35.90;;;;;4.20;77.25;100924.45;502843;108;385219;-75
2020/12/31 03:42:28;;;;;;;;;40.70;33.90;;;;;4.19;77.26;100919.24;498221;109;392753;-75
2020/12/31 03:43:31;;;;;;;;;47.30;36.00;;;;;4.19;77.26;100919.24;502906;108;385435;-76
2020/12/31 03:44:35;;;;;;;;;44.80;36.00;;;;;4.15;77.99;100915.88;501193;108;386132;-75
2020/12/31 03:45:39;;;;;;;;;41.90;36.30;;;;;4.15;77.99;100915.88;501652;108;385636;-75
2020/12/31 03:46:46;;;;;;;;;44.40;36.20;;;;;4.17;77.87;100913.20;498635;108;386075;-76
2020/12/31 03:47:49;;;;;;;;;44.80;38.80;;;;;4.16;77.68;100917.61;499188;109;385679;-76
2020/12/31 03:48:53;;;;;;;;;39.10;33.20;;;;;4.20;78.31;100907.80;500653;108;385276;-77
2020/12/31 03:49:57;;;;;;;;;46.40;32.10;;;;;4.20;78.31;100907.80;504667;108;388585;-76
2020/12/31 03:51:01;;;;;;;;;47.50;38.50;;;;;4.19;78.08;100906.94;504739;108;386191;-75
2020/12/31 03:52:05;;;;;;;;;43.60;37.20;;;;;4.22;78.12;100913.84;504652;108;393407;-75
2020/12/31 03:53:09;;;;;;;;;39.70;35.90;;;;;4.21;77.92;100920.05;504677;108;390454;-75
2020/12/31 03:54:13;;;;;;;;;43.90;35.30;;;;;4.13;78.14;100927.41;504196;108;385461;-75
2020/12/31 03:55:17;;;;;;;;;40.60;33.10;;;;;4.11;78.93;100935.39;499247;108;386556;-76
2020/12/31 03:56:22;;;;;;;;;41.90;33.70;;;;;4.17;78.37;100931.63;497875;109;386314;-74
2020/12/31 03:57:26;;;;;;;;;25.20;22.10;;;;;4.06;77.84;100911.03;499696;109;382505;-75
2020/12/31 03:58:30;;;;;;;;;42.50;34.80;;;;;4.18;78.10;100934.17;499478;109;386141;-73
2020/12/31 03:59:34;;;;;;;;;42.60;31.10;;;;;4.18;78.10;100934.17;505183;107;385856;-74
2020/12/31 04:00:38;;;;;;;;;47.30;38.00;;;;;4.15;78.45;100933.45;498657;109;385027;-77
2020/12/31 04:01:42;;;;;;;;;38.10;30.40;;;;;4.17;78.78;100934.26;499508;109;385623;-76
2020/12/31 04:02:46;;;;;;;;;39.00;28.80;;;;;4.22;78.40;100942.80;500712;108;384793;-76
2020/12/31 04:03:50;;;;;;;;;38.50;30.80;;;;;4.22;78.40;100942.80;504713;108;384791;-78
2020/12/31 04:04:54;;;;;;;;;32.00;27.40;;;;;4.23;78.02;100941.89;500067;108;384593;-76
2020/12/31 04:05:58;;;;;;;;;41.20;34.70;;;;;4.21;78.49;100951.64;499106;109;385832;-75
2020/12/31 04:07:02;;;;;;;;;41.20;33.10;;;;;4.22;78.20;100943.66;501213;108;386598;-76
2020/12/31 04:08:06;;;;;;;;;41.90;34.70;;;;;4.22;78.34;100946.29;497931;109;385641;-77
2020/12/31 04:09:10;;;;;;;;;34.10;29.30;;;;;4.25;78.03;100934.77;499255;109;390207;-77
2020/12/31 04:10:15;;;;;;;;;38.70;34.80;;;;;4.28;78.25;100932.85;502200;108;385500;-74
2020/12/31 04:11:19;;;;;;;;;34.50;29.20;;;;;4.28;78.25;100932.85;498199;108;390917;-72
2020/12/31 04:12:23;;;;;;;;;42.60;33.50;;;;;4.26;77.85;100939.98;504279;108;385342;-73
2020/12/31 04:13:26;;;;;;;;;38.90;31.90;;;;;4.26;77.85;100939.98;504234;108;386253;-75
2020/12/31 04:14:30;;;;;;;;;36.80;32.50;;;;;4.26;78.08;100945.24;504247;108;385032;-74
2020/12/31 04:15:34;;;;;;;;;38.90;33.50;;;;;4.23;78.34;100945.37;504263;108;385988;-76
2020/12/31 04:16:40;;;;;;;;;38.50;29.80;;;;;4.20;78.64;100948.15;503996;108;384343;-76
2020/12/31 04:17:44;;;;;;;;;38.60;30.80;;;;;4.15;78.79;100957.14;504729;108;385543;-76
2020/12/31 04:18:48;;;;;;;;;37.10;32.90;;;;;4.15;78.79;100957.14;504790;108;384572;-75
2020/12/31 04:19:52;;;;;;;;;37.40;29.30;;;;;4.13;78.83;100943.20;504785;108;384561;-78
2020/12/31 04:20:57;;;;;;;;;39.40;32.50;;;;;4.13;78.83;100943.20;502436;107;385616;-79
2020/12/31 04:22:00;;;;;;;;;39.90;32.00;;;;;4.14;78.54;100939.66;499324;109;385788;-78
2020/12/31 04:23:04;;;;;;;;;37.90;31.40;;;;;4.16;79.10;100941.30;497962;109;385942;-79
2020/12/31 04:24:08;;;;;;;;;40.90;34.70;;;;;4.18;79.53;100944.70;503010;108;385909;-75
2020/12/31 04:25:12;;;;;;;;;40.10;34.80;;;;;4.18;79.53;100944.70;504696;108;385547;-77
2020/12/31 04:26:17;;;;;;;;;36.40;32.40;;;;;4.14;78.88;100943.16;503966;108;384567;-75
2020/12/31 04:27:23;;;;;;;;;35.40;29.70;;;;;4.18;78.65;100942.08;504202;108;389787;-76
2020/12/31 04:28:27;;;;;;;;;35.40;31.50;;;;;4.18;78.49;100938.61;504198;108;391326;-75
2020/12/31 04:29:31;;;;;;;;;38.80;32.90;;;;;4.18;78.49;100938.61;504740;108;385566;-75
2020/12/31 04:30:37;;;;;;;;;35.70;30.60;;;;;4.16;78.93;100941.30;503800;108;385251;-78
2020/12/31 04:31:41;;;;;;;;;35.20;30.70;;;;;4.14;78.39;100937.03;504924;108;384967;-76
2020/12/31 04:32:45;;;;;;;;;40.20;31.60;;;;;4.16;79.26;100937.80;504759;108;385393;-76
2020/12/31 04:33:48;;;;;;;;;30.00;26.80;;;;;4.12;79.08;100928.33;504913;108;383567;-76
2020/12/31 04:34:52;;;;;;;;;44.50;35.40;;;;;4.12;79.25;100928.33;498484;108;386137;-75
2020/12/31 04:35:56;;;;;;;;;37.90;31.50;;;;;4.13;79.44;100935.31;502992;108;385761;-79
2020/12/31 04:37:00;;;;;;;;;47.70;38.60;;;;;4.10;79.53;100931.04;504931;108;384014;-79
2020/12/31 04:38:04;;;;;;;;;38.80;31.20;;;;;4.14;79.44;100935.26;501588;108;385341;-80
2020/12/31 04:39:08;;;;;;;;;47.10;32.90;;;;;4.16;79.09;100940.44;501769;108;387440;-80
2020/12/31 04:40:14;;;;;;;;;43.90;34.50;;;;;4.12;78.92;100939.72;497213;109;386978;-80
2020/12/31 04:41:18;;;;;;;;;42.30;36.20;;;;;4.12;78.92;100939.72;495670;109;385594;-74
2020/12/31 04:42:21;;;;;;;;;41.00;31.27;;;;;4.10;78.86;100944.20;496428;109;398574;-73
2020/12/31 04:43:25;;;;;;;;;40.20;33.00;;;;;4.00;79.31;100942.88;502118;108;383731;-74
2020/12/31 04:44:29;;;;;;;;;38.90;33.10;;;;;3.98;79.54;100942.11;497233;108;385534;-75
2020/12/31 04:45:33;;;;;;;;;41.50;35.40;;;;;3.96;79.80;100941.30;503239;108;385821;-74
2020/12/31 04:46:37;;;;;;;;;42.90;31.30;;;;;3.92;79.88;100934.48;504014;108;387546;-75
2020/12/31 04:47:44;;;;;;;;;32.30;26.10;;;;;2.84;80.28;100750.69;498885;109;386278;-75
2020/12/31 04:48:50;;;;;;;;;42.20;33.40;;;;;3.90;79.94;100936.30;497929;109;384860;-77
2020/12/31 04:49:55;;;;;;;;;36.10;31.70;;;;;3.90;79.94;100936.30;497522;108;385037;-76
2020/12/31 04:50:59;;;;;;;;;41.30;34.90;;;;;3.95;80.05;100942.23;500890;108;386929;-75
2020/12/31 04:52:04;;;;;;;;;42.50;31.80;;;;;3.93;79.91;100951.09;504755;108;384175;-74
2020/12/31 04:53:08;;;;;;;;;40.00;33.00;;;;;3.93;79.91;100951.09;504381;108;386984;-76
2020/12/31 04:54:12;;;;;;;;;38.70;33.40;;;;;3.87;80.52;100949.59;503910;108;385535;-73
2020/12/31 04:55:16;;;;;;;;;39.00;30.90;;;;;3.85;80.69;100953.20;504699;108;385593;-76
2020/12/31 04:56:20;;;;;;;;;37.70;33.60;;;;;3.89;81.11;100960.06;504350;108;391909;-73
2020/12/31 04:57:24;;;;;;;;;44.30;38.00;;;;;3.93;80.77;100949.32;504720;108;385653;-74
2020/12/31 04:58:28;;;;;;;;;41.80;35.60;;;;;3.92;80.62;100950.27;504131;108;391213;-74
2020/12/31 04:59:32;;;;;;;;;51.10;40.20;;;;;3.88;80.38;100953.94;504602;108;386417;-79
2020/12/31 05:00:36;;;;;;;;;44.70;36.10;;;;;3.88;80.90;100947.81;504893;108;385522;-79
2020/12/31 05:01:43;;;;;;;;;48.90;35.70;;;;;3.88;81.11;100953.08;505125;108;385110;-79
2020/12/31 05:02:53;;;;;;;;;49.40;40.10;;;;;3.80;80.97;100957.83;504690;108;393333;-77
2020/12/31 05:03:57;;;;;;;;;43.90;34.90;;;;;3.80;80.97;100957.83;504313;108;385688;-77
2020/12/31 05:05:01;;;;;;;;;46.80;35.70;;;;;3.80;81.13;100956.02;498038;109;387520;-79